sensor_id;sensor_type;location;lat;lon;timestamp;temperature;humidity
37232;DHT22;23125;48.156;15.954;2023-06-14T00:01:53;14.60;53.50
37232;DHT22;23125;48.156;15.954;2023-06-14T00:04:19;14.60;53.70
37232;DHT22;23125;48.156;15.954;2023-06-14T00:06:46;14.60;53.70
37232;DHT22;23125;48.156;15.954;2023-06-14T00:09:14;14.60;54.00
37232;DHT22;23125;48.156;15.954;2023-06-14T00:11:42;14.60;54.00
37232;DHT22;23125;48.156;15.954;2023-06-14T00:14:08;14.60;54.20
37232;DHT22;23125;48.156;15.954;2023-06-14T00:16:35;14.60;54.30
37232;DHT22;23125;48.156;15.954;2023-06-14T00:19:04;14.60;54.40
37232;DHT22;23125;48.156;15.954;2023-06-14T00:21:31;14.60;54.40
37232;DHT22;23125;48.156;15.954;2023-06-14T00:23:58;14.60;54.50
37232;DHT22;23125;48.156;15.954;2023-06-14T00:26:24;14.70;54.70
37232;DHT22;23125;48.156;15.954;2023-06-14T00:28:53;14.70;54.80
37232;DHT22;23125;48.156;15.954;2023-06-14T00:31:19;14.60;54.70
37232;DHT22;23125;48.156;15.954;2023-06-14T00:33:45;14.60;55.00
37232;DHT22;23125;48.156;15.954;2023-06-14T00:36:11;14.60;55.20
37232;DHT22;23125;48.156;15.954;2023-06-14T00:38:37;14.70;55.40
37232;DHT22;23125;48.156;15.954;2023-06-14T00:41:03;14.80;55.50
37232;DHT22;23125;48.156;15.954;2023-06-14T00:43:29;14.80;55.60
37232;DHT22;23125;48.156;15.954;2023-06-14T00:45:55;14.80;55.60
37232;DHT22;23125;48.156;15.954;2023-06-14T00:48:21;14.90;55.80
37232;DHT22;23125;48.156;15.954;2023-06-14T00:50:49;14.90;55.90
37232;DHT22;23125;48.156;15.954;2023-06-14T00:53:16;14.90;55.90
37232;DHT22;23125;48.156;15.954;2023-06-14T00:55:43;15.00;56.00
37232;DHT22;23125;48.156;15.954;2023-06-14T00:58:10;15.00;56.00
37232;DHT22;23125;48.156;15.954;2023-06-14T01:00:36;15.10;56.00
37232;DHT22;23125;48.156;15.954;2023-06-14T01:03:02;15.10;56.00
37232;DHT22;23125;48.156;15.954;2023-06-14T01:05:29;15.10;56.10
37232;DHT22;23125;48.156;15.954;2023-06-14T01:08:23;15.20;56.20
37232;DHT22;23125;48.156;15.954;2023-06-14T01:11:05;15.10;56.20
37232;DHT22;23125;48.156;15.954;2023-06-14T01:13:34;15.20;56.20
37232;DHT22;23125;48.156;15.954;2023-06-14T01:16:02;15.20;56.20
37232;DHT22;23125;48.156;15.954;2023-06-14T01:18:29;15.20;56.40
37232;DHT22;23125;48.156;15.954;2023-06-14T01:20:55;15.20;56.40
37232;DHT22;23125;48.156;15.954;2023-06-14T01:23:22;15.20;56.40
37232;DHT22;23125;48.156;15.954;2023-06-14T01:25:49;15.30;56.50
37232;DHT22;23125;48.156;15.954;2023-06-14T01:28:20;15.30;56.60
37232;DHT22;23125;48.156;15.954;2023-06-14T01:30:49;15.30;56.70
37232;DHT22;23125;48.156;15.954;2023-06-14T01:33:20;15.30;56.70
37232;DHT22;23125;48.156;15.954;2023-06-14T01:35:49;15.30;56.80
37232;DHT22;23125;48.156;15.954;2023-06-14T01:38:17;15.30;56.90
37232;DHT22;23125;48.156;15.954;2023-06-14T01:40:45;15.40;56.90
37232;DHT22;23125;48.156;15.954;2023-06-14T01:43:13;15.30;56.90
37232;DHT22;23125;48.156;15.954;2023-06-14T01:45:42;15.30;56.90
37232;DHT22;23125;48.156;15.954;2023-06-14T01:48:09;15.40;57.00
37232;DHT22;23125;48.156;15.954;2023-06-14T01:50:35;15.30;57.10
37232;DHT22;23125;48.156;15.954;2023-06-14T01:53:01;15.30;57.00
37232;DHT22;23125;48.156;15.954;2023-06-14T01:55:27;15.40;57.20
37232;DHT22;23125;48.156;15.954;2023-06-14T01:57:53;15.40;57.20
37232;DHT22;23125;48.156;15.954;2023-06-14T02:00:20;15.40;57.30
37232;DHT22;23125;48.156;15.954;2023-06-14T02:02:47;15.40;57.40
37232;DHT22;23125;48.156;15.954;2023-06-14T02:05:14;15.40;57.50
37232;DHT22;23125;48.156;15.954;2023-06-14T02:07:44;15.40;57.50
37232;DHT22;23125;48.156;15.954;2023-06-14T02:10:11;15.40;57.50
37232;DHT22;23125;48.156;15.954;2023-06-14T02:12:37;15.40;57.40
37232;DHT22;23125;48.156;15.954;2023-06-14T02:15:03;15.40;57.40
37232;DHT22;23125;48.156;15.954;2023-06-14T02:17:29;15.40;57.50
37232;DHT22;23125;48.156;15.954;2023-06-14T02:19:55;15.40;57.60
37232;DHT22;23125;48.156;15.954;2023-06-14T02:22:23;15.40;57.60
37232;DHT22;23125;48.156;15.954;2023-06-14T02:24:49;15.40;57.70
37232;DHT22;23125;48.156;15.954;2023-06-14T02:27:16;15.40;57.70
37232;DHT22;23125;48.156;15.954;2023-06-14T02:29:42;15.40;57.70
37232;DHT22;23125;48.156;15.954;2023-06-14T02:32:08;15.40;57.80
37232;DHT22;23125;48.156;15.954;2023-06-14T02:34:34;15.40;57.80
37232;DHT22;23125;48.156;15.954;2023-06-14T02:37:01;15.40;57.80
37232;DHT22;23125;48.156;15.954;2023-06-14T02:39:29;15.40;57.90
37232;DHT22;23125;48.156;15.954;2023-06-14T02:41:55;15.40;57.90
37232;DHT22;23125;48.156;15.954;2023-06-14T02:44:25;15.40;58.00
37232;DHT22;23125;48.156;15.954;2023-06-14T02:46:53;15.40;58.00
37232;DHT22;23125;48.156;15.954;2023-06-14T02:49:19;15.40;58.00
37232;DHT22;23125;48.156;15.954;2023-06-14T02:51:45;15.40;58.00
37232;DHT22;23125;48.156;15.954;2023-06-14T02:54:11;15.30;58.00
37232;DHT22;23125;48.156;15.954;2023-06-14T02:56:36;15.30;58.10
37232;DHT22;23125;48.156;15.954;2023-06-14T02:59:02;15.30;58.20
37232;DHT22;23125;48.156;15.954;2023-06-14T03:01:28;15.30;58.30
37232;DHT22;23125;48.156;15.954;2023-06-14T03:04:01;15.30;58.40
37232;DHT22;23125;48.156;15.954;2023-06-14T03:06:29;15.30;58.40
37232;DHT22;23125;48.156;15.954;2023-06-14T03:08:57;15.30;58.40
37232;DHT22;23125;48.156;15.954;2023-06-14T03:11:27;15.30;58.50
37232;DHT22;23125;48.156;15.954;2023-06-14T03:13:53;15.30;58.50
37232;DHT22;23125;48.156;15.954;2023-06-14T03:16:21;15.30;58.60
37232;DHT22;23125;48.156;15.954;2023-06-14T03:18:49;15.30;58.60
37232;DHT22;23125;48.156;15.954;2023-06-14T03:21:15;15.30;58.70
37232;DHT22;23125;48.156;15.954;2023-06-14T03:23:42;15.30;58.60
37232;DHT22;23125;48.156;15.954;2023-06-14T03:26:08;15.30;58.70
37232;DHT22;23125;48.156;15.954;2023-06-14T03:28:34;15.30;58.70
37232;DHT22;23125;48.156;15.954;2023-06-14T03:31:00;15.30;58.80
37232;DHT22;23125;48.156;15.954;2023-06-14T03:33:27;15.30;58.80
37232;DHT22;23125;48.156;15.954;2023-06-14T03:35:53;15.30;58.80
37232;DHT22;23125;48.156;15.954;2023-06-14T03:38:18;15.30;58.90
37232;DHT22;23125;48.156;15.954;2023-06-14T03:40:44;15.30;58.90
37232;DHT22;23125;48.156;15.954;2023-06-14T03:43:10;15.30;59.00
37232;DHT22;23125;48.156;15.954;2023-06-14T03:45:36;15.30;59.20
37232;DHT22;23125;48.156;15.954;2023-06-14T03:48:02;15.40;59.30
37232;DHT22;23125;48.156;15.954;2023-06-14T03:50:28;15.40;59.30
37232;DHT22;23125;48.156;15.954;2023-06-14T03:52:54;15.40;59.20
37232;DHT22;23125;48.156;15.954;2023-06-14T03:55:20;15.40;59.30
37232;DHT22;23125;48.156;15.954;2023-06-14T03:57:46;15.50;59.30
37232;DHT22;23125;48.156;15.954;2023-06-14T04:00:12;15.50;59.50
37232;DHT22;23125;48.156;15.954;2023-06-14T04:02:38;15.50;59.60
37232;DHT22;23125;48.156;15.954;2023-06-14T04:05:04;15.60;59.60
37232;DHT22;23125;48.156;15.954;2023-06-14T04:07:34;15.70;59.80
37232;DHT22;23125;48.156;15.954;2023-06-14T04:10:08;15.70;59.80
37232;DHT22;23125;48.156;15.954;2023-06-14T04:12:34;15.80;59.80
37232;DHT22;23125;48.156;15.954;2023-06-14T04:15:00;15.80;59.80
37232;DHT22;23125;48.156;15.954;2023-06-14T04:17:26;15.90;60.00
37232;DHT22;23125;48.156;15.954;2023-06-14T04:19:52;16.00;60.00
37232;DHT22;23125;48.156;15.954;2023-06-14T04:22:18;16.10;60.00
37232;DHT22;23125;48.156;15.954;2023-06-14T04:24:44;16.10;60.00
37232;DHT22;23125;48.156;15.954;2023-06-14T04:27:10;16.20;59.90
37232;DHT22;23125;48.156;15.954;2023-06-14T04:29:36;16.20;59.80
37232;DHT22;23125;48.156;15.954;2023-06-14T04:32:02;16.30;59.70
37232;DHT22;23125;48.156;15.954;2023-06-14T04:34:28;16.30;59.80
37232;DHT22;23125;48.156;15.954;2023-06-14T04:37:00;16.40;60.00
37232;DHT22;23125;48.156;15.954;2023-06-14T04:39:27;16.50;60.80
37232;DHT22;23125;48.156;15.954;2023-06-14T04:41:53;16.60;60.10
37232;DHT22;23125;48.156;15.954;2023-06-14T04:44:23;16.60;60.00
37232;DHT22;23125;48.156;15.954;2023-06-14T04:46:57;16.70;60.00
37232;DHT22;23125;48.156;15.954;2023-06-14T04:49:24;16.80;60.30
37232;DHT22;23125;48.156;15.954;2023-06-14T04:51:53;16.90;60.60
37232;DHT22;23125;48.156;15.954;2023-06-14T04:54:27;17.10;60.60
37232;DHT22;23125;48.156;15.954;2023-06-14T04:56:53;17.20;60.40
37232;DHT22;23125;48.156;15.954;2023-06-14T04:59:21;17.20;59.90
37232;DHT22;23125;48.156;15.954;2023-06-14T05:01:50;17.20;59.70
37232;DHT22;23125;48.156;15.954;2023-06-14T05:04:18;17.30;59.80
37232;DHT22;23125;48.156;15.954;2023-06-14T05:06:44;17.30;59.80
37232;DHT22;23125;48.156;15.954;2023-06-14T05:09:14;17.40;59.90
37232;DHT22;23125;48.156;15.954;2023-06-14T05:11:43;17.50;59.80
37232;DHT22;23125;48.156;15.954;2023-06-14T05:14:11;17.50;59.70
37232;DHT22;23125;48.156;15.954;2023-06-14T05:16:37;17.60;59.80
37232;DHT22;23125;48.156;15.954;2023-06-14T05:19:03;17.70;60.10
37232;DHT22;23125;48.156;15.954;2023-06-14T05:21:32;18.00;60.40
37232;DHT22;23125;48.156;15.954;2023-06-14T05:24:00;18.20;61.10
37232;DHT22;23125;48.156;15.954;2023-06-14T05:26:27;18.40;60.70
37232;DHT22;23125;48.156;15.954;2023-06-14T05:28:59;18.60;60.40
37232;DHT22;23125;48.156;15.954;2023-06-14T05:31:27;18.80;60.00
37232;DHT22;23125;48.156;15.954;2023-06-14T05:33:54;19.00;59.80
37232;DHT22;23125;48.156;15.954;2023-06-14T05:36:20;19.10;59.50
37232;DHT22;23125;48.156;15.954;2023-06-14T05:38:49;19.20;59.40
37232;DHT22;23125;48.156;15.954;2023-06-14T05:41:16;19.40;59.50
37232;DHT22;23125;48.156;15.954;2023-06-14T05:43:42;19.80;60.00
37232;DHT22;23125;48.156;15.954;2023-06-14T05:46:08;20.70;62.80
37232;DHT22;23125;48.156;15.954;2023-06-14T05:48:34;21.40;62.60
37232;DHT22;23125;48.156;15.954;2023-06-14T05:51:00;22.50;61.90
37232;DHT22;23125;48.156;15.954;2023-06-14T05:53:26;23.40;60.50
37232;DHT22;23125;48.156;15.954;2023-06-14T05:55:52;24.30;59.20
37232;DHT22;23125;48.156;15.954;2023-06-14T05:58:19;25.10;57.50
37232;DHT22;23125;48.156;15.954;2023-06-14T06:00:45;25.80;55.80
37232;DHT22;23125;48.156;15.954;2023-06-14T06:03:12;26.40;54.50
37232;DHT22;23125;48.156;15.954;2023-06-14T06:05:39;26.90;53.70
37232;DHT22;23125;48.156;15.954;2023-06-14T06:08:05;27.50;53.40
37232;DHT22;23125;48.156;15.954;2023-06-14T06:10:31;28.20;52.00
37232;DHT22;23125;48.156;15.954;2023-06-14T06:12:57;28.90;51.10
37232;DHT22;23125;48.156;15.954;2023-06-14T06:15:23;29.60;50.30
37232;DHT22;23125;48.156;15.954;2023-06-14T06:17:49;29.90;48.20
37232;DHT22;23125;48.156;15.954;2023-06-14T06:20:16;30.00;46.90
37232;DHT22;23125;48.156;15.954;2023-06-14T06:22:43;30.20;46.30
37232;DHT22;23125;48.156;15.954;2023-06-14T06:25:09;30.40;45.70
37232;DHT22;23125;48.156;15.954;2023-06-14T06:27:35;30.80;45.80
37232;DHT22;23125;48.156;15.954;2023-06-14T06:30:03;31.10;44.40
37232;DHT22;23125;48.156;15.954;2023-06-14T06:32:29;31.50;44.50
37232;DHT22;23125;48.156;15.954;2023-06-14T06:34:55;31.90;43.60
37232;DHT22;23125;48.156;15.954;2023-06-14T06:37:21;32.30;43.20
37232;DHT22;23125;48.156;15.954;2023-06-14T06:39:47;32.70;42.10
37232;DHT22;23125;48.156;15.954;2023-06-14T06:42:13;33.20;41.50
37232;DHT22;23125;48.156;15.954;2023-06-14T06:44:39;33.10;39.00
37232;DHT22;23125;48.156;15.954;2023-06-14T06:47:05;32.60;37.50
37232;DHT22;23125;48.156;15.954;2023-06-14T06:49:31;32.10;36.90
37232;DHT22;23125;48.156;15.954;2023-06-14T06:54:27;31.00;36.40
37232;DHT22;23125;48.156;15.954;2023-06-14T06:56:53;30.40;36.60
37232;DHT22;23125;48.156;15.954;2023-06-14T06:59:19;30.00;37.10
37232;DHT22;23125;48.156;15.954;2023-06-14T07:01:45;29.50;36.90
37232;DHT22;23125;48.156;15.954;2023-06-14T07:04:12;29.10;36.90
37232;DHT22;23125;48.156;15.954;2023-06-14T07:06:39;28.70;36.90
37232;DHT22;23125;48.156;15.954;2023-06-14T07:09:05;28.40;37.20
37232;DHT22;23125;48.156;15.954;2023-06-14T07:11:34;28.10;37.70
37232;DHT22;23125;48.156;15.954;2023-06-14T07:13:59;27.90;38.20
37232;DHT22;23125;48.156;15.954;2023-06-14T07:16:25;28.20;39.80
37232;DHT22;23125;48.156;15.954;2023-06-14T07:18:52;28.50;40.30
37232;DHT22;23125;48.156;15.954;2023-06-14T07:21:18;29.00;40.40
37232;DHT22;23125;48.156;15.954;2023-06-14T07:23:43;29.20;38.90
37232;DHT22;23125;48.156;15.954;2023-06-14T07:26:09;29.00;37.40
37232;DHT22;23125;48.156;15.954;2023-06-14T07:28:35;28.80;37.00
37232;DHT22;23125;48.156;15.954;2023-06-14T07:31:01;28.70;37.30
37232;DHT22;23125;48.156;15.954;2023-06-14T07:33:28;28.60;36.80
37232;DHT22;23125;48.156;15.954;2023-06-14T07:35:54;28.30;36.40
37232;DHT22;23125;48.156;15.954;2023-06-14T07:38:20;28.10;36.90
37232;DHT22;23125;48.156;15.954;2023-06-14T07:40:46;27.90;36.90
37232;DHT22;23125;48.156;15.954;2023-06-14T07:43:11;27.70;36.80
37232;DHT22;23125;48.156;15.954;2023-06-14T07:45:37;27.60;37.20
37232;DHT22;23125;48.156;15.954;2023-06-14T07:48:04;27.50;37.40
37232;DHT22;23125;48.156;15.954;2023-06-14T07:50:29;27.50;38.40
37232;DHT22;23125;48.156;15.954;2023-06-14T07:52:56;27.60;38.10
37232;DHT22;23125;48.156;15.954;2023-06-14T07:55:22;27.70;38.40
37232;DHT22;23125;48.156;15.954;2023-06-14T07:57:48;27.80;37.70
37232;DHT22;23125;48.156;15.954;2023-06-14T08:00:14;27.90;38.30
37232;DHT22;23125;48.156;15.954;2023-06-14T08:02:44;28.50;40.10
37232;DHT22;23125;48.156;15.954;2023-06-14T08:05:10;28.90;39.70
37232;DHT22;23125;48.156;15.954;2023-06-14T08:07:38;29.50;39.00
37232;DHT22;23125;48.156;15.954;2023-06-14T08:10:05;29.80;38.20
37232;DHT22;23125;48.156;15.954;2023-06-14T08:12:33;30.20;38.10
37232;DHT22;23125;48.156;15.954;2023-06-14T08:14:59;30.70;38.10
37232;DHT22;23125;48.156;15.954;2023-06-14T08:17:25;31.00;36.60
37232;DHT22;23125;48.156;15.954;2023-06-14T08:19:52;31.30;36.00
37232;DHT22;23125;48.156;15.954;2023-06-14T08:22:20;31.20;34.80
37232;DHT22;23125;48.156;15.954;2023-06-14T08:24:47;31.00;34.10
37232;DHT22;23125;48.156;15.954;2023-06-14T08:27:14;31.20;35.20
37232;DHT22;23125;48.156;15.954;2023-06-14T08:29:40;31.50;35.30
37232;DHT22;23125;48.156;15.954;2023-06-14T08:32:07;32.00;34.90
37232;DHT22;23125;48.156;15.954;2023-06-14T08:34:33;32.30;34.90
37232;DHT22;23125;48.156;15.954;2023-06-14T08:36:58;32.70;34.30
37232;DHT22;23125;48.156;15.954;2023-06-14T08:39:24;32.70;32.70
37232;DHT22;23125;48.156;15.954;2023-06-14T08:41:52;32.60;32.00
37232;DHT22;23125;48.156;15.954;2023-06-14T08:44:18;32.50;32.10
37232;DHT22;23125;48.156;15.954;2023-06-14T08:46:45;32.30;32.30
37232;DHT22;23125;48.156;15.954;2023-06-14T08:49:13;32.20;31.60
37232;DHT22;23125;48.156;15.954;2023-06-14T08:51:43;31.90;31.20
37232;DHT22;23125;48.156;15.954;2023-06-14T08:54:11;31.60;31.40
37232;DHT22;23125;48.156;15.954;2023-06-14T08:56:40;31.40;31.70
37232;DHT22;23125;48.156;15.954;2023-06-14T08:59:08;31.20;31.70
37232;DHT22;23125;48.156;15.954;2023-06-14T09:01:36;31.00;31.70
37232;DHT22;23125;48.156;15.954;2023-06-14T09:04:03;30.80;31.90
37232;DHT22;23125;48.156;15.954;2023-06-14T09:06:31;30.70;32.20
37232;DHT22;23125;48.156;15.954;2023-06-14T09:08:58;30.70;32.30
37232;DHT22;23125;48.156;15.954;2023-06-14T09:11:24;30.80;33.10
37232;DHT22;23125;48.156;15.954;2023-06-14T09:13:52;31.00;33.10
37232;DHT22;23125;48.156;15.954;2023-06-14T09:16:18;31.30;33.00
37232;DHT22;23125;48.156;15.954;2023-06-14T09:18:46;31.20;32.10
37232;DHT22;23125;48.156;15.954;2023-06-14T09:21:16;31.00;31.10
37232;DHT22;23125;48.156;15.954;2023-06-14T09:23:44;30.70;30.60
37232;DHT22;23125;48.156;15.954;2023-06-14T09:26:16;30.40;30.80
37232;DHT22;23125;48.156;15.954;2023-06-14T09:28:46;30.00;31.30
37232;DHT22;23125;48.156;15.954;2023-06-14T09:31:17;29.90;32.30
37232;DHT22;23125;48.156;15.954;2023-06-14T09:33:48;30.10;33.40
37232;DHT22;23125;48.156;15.954;2023-06-14T09:36:22;30.50;34.10
37232;DHT22;23125;48.156;15.954;2023-06-14T09:38:57;30.80;33.30
37232;DHT22;23125;48.156;15.954;2023-06-14T09:41:33;31.20;33.40
37232;DHT22;23125;48.156;15.954;2023-06-14T09:44:01;31.60;33.10
37232;DHT22;23125;48.156;15.954;2023-06-14T09:46:28;32.00;33.00
37232;DHT22;23125;48.156;15.954;2023-06-14T09:48:59;32.40;32.40
37232;DHT22;23125;48.156;15.954;2023-06-14T09:51:27;32.60;31.80
37232;DHT22;23125;48.156;15.954;2023-06-14T09:53:58;32.70;31.20
37232;DHT22;23125;48.156;15.954;2023-06-14T09:56:42;32.60;30.20
37232;DHT22;23125;48.156;15.954;2023-06-14T09:59:10;32.50;30.50
37232;DHT22;23125;48.156;15.954;2023-06-14T10:01:45;32.60;30.50
37232;DHT22;23125;48.156;15.954;2023-06-14T10:04:12;32.30;29.70
37232;DHT22;23125;48.156;15.954;2023-06-14T10:06:41;32.20;30.00
37232;DHT22;23125;48.156;15.954;2023-06-14T10:09:09;32.00;29.70
37232;DHT22;23125;48.156;15.954;2023-06-14T10:11:36;31.60;29.40
37232;DHT22;23125;48.156;15.954;2023-06-14T10:14:05;31.20;29.40
37232;DHT22;23125;48.156;15.954;2023-06-14T10:16:37;30.80;29.70
37232;DHT22;23125;48.156;15.954;2023-06-14T10:19:29;30.60;29.80
37232;DHT22;23125;48.156;15.954;2023-06-14T10:22:11;30.30;29.80
37232;DHT22;23125;48.156;15.954;2023-06-14T10:24:42;30.10;30.20
37232;DHT22;23125;48.156;15.954;2023-06-14T10:27:09;29.90;30.40
37232;DHT22;23125;48.156;15.954;2023-06-14T10:32:27;29.60;31.20
37232;DHT22;23125;48.156;15.954;2023-06-14T10:35:01;29.40;31.30
37232;DHT22;23125;48.156;15.954;2023-06-14T10:37:29;29.30;31.60
37232;DHT22;23125;48.156;15.954;2023-06-14T10:39:55;29.30;31.80
37232;DHT22;23125;48.156;15.954;2023-06-14T10:42:23;29.20;31.80
37232;DHT22;23125;48.156;15.954;2023-06-14T10:44:56;29.10;31.60
37232;DHT22;23125;48.156;15.954;2023-06-14T10:47:34;29.00;32.10
37232;DHT22;23125;48.156;15.954;2023-06-14T10:50:08;28.90;32.40
37232;DHT22;23125;48.156;15.954;2023-06-14T10:52:39;28.70;31.70
37232;DHT22;23125;48.156;15.954;2023-06-14T10:55:16;28.60;32.10
37232;DHT22;23125;48.156;15.954;2023-06-14T10:57:49;28.30;32.00
37232;DHT22;23125;48.156;15.954;2023-06-14T11:00:23;28.10;31.90
37232;DHT22;23125;48.156;15.954;2023-06-14T11:03:19;27.90;31.90
37232;DHT22;23125;48.156;15.954;2023-06-14T11:05:54;27.70;32.40
37232;DHT22;23125;48.156;15.954;2023-06-14T11:11:18;27.60;32.60
37232;DHT22;23125;48.156;15.954;2023-06-14T11:13:47;27.50;32.50
37232;DHT22;23125;48.156;15.954;2023-06-14T11:16:17;27.40;32.90
37232;DHT22;23125;48.156;15.954;2023-06-14T11:18:45;27.30;32.90
37232;DHT22;23125;48.156;15.954;2023-06-14T11:21:15;27.30;32.90
37232;DHT22;23125;48.156;15.954;2023-06-14T11:23:41;27.30;32.80
37232;DHT22;23125;48.156;15.954;2023-06-14T11:26:06;27.30;33.00
37232;DHT22;23125;48.156;15.954;2023-06-14T11:28:40;27.20;33.10
37232;DHT22;23125;48.156;15.954;2023-06-14T11:31:06;27.20;33.30
37232;DHT22;23125;48.156;15.954;2023-06-14T11:33:34;27.10;33.20
37232;DHT22;23125;48.156;15.954;2023-06-14T11:36:04;27.10;33.40
37232;DHT22;23125;48.156;15.954;2023-06-14T11:38:36;27.00;33.10
37232;DHT22;23125;48.156;15.954;2023-06-14T11:41:05;26.90;33.30
37232;DHT22;23125;48.156;15.954;2023-06-14T11:43:31;26.90;33.60
37232;DHT22;23125;48.156;15.954;2023-06-14T11:45:59;26.90;33.50
37232;DHT22;23125;48.156;15.954;2023-06-14T11:48:37;26.90;33.90
37232;DHT22;23125;48.156;15.954;2023-06-14T11:51:03;26.90;33.60
37232;DHT22;23125;48.156;15.954;2023-06-14T11:53:28;26.90;33.90
37232;DHT22;23125;48.156;15.954;2023-06-14T11:55:55;27.00;34.50
37232;DHT22;23125;48.156;15.954;2023-06-14T11:58:20;27.10;34.30
37232;DHT22;23125;48.156;15.954;2023-06-14T12:00:49;27.10;33.70
37232;DHT22;23125;48.156;15.954;2023-06-14T12:03:15;27.20;34.10
37232;DHT22;23125;48.156;15.954;2023-06-14T12:05:41;27.30;34.20
37232;DHT22;23125;48.156;15.954;2023-06-14T12:08:07;27.30;34.10
37232;DHT22;23125;48.156;15.954;2023-06-14T12:10:40;27.40;33.30
37232;DHT22;23125;48.156;15.954;2023-06-14T12:13:09;27.30;33.10
37232;DHT22;23125;48.156;15.954;2023-06-14T12:15:36;27.20;33.10
37232;DHT22;23125;48.156;15.954;2023-06-14T12:18:05;27.10;33.00
37232;DHT22;23125;48.156;15.954;2023-06-14T12:20:34;26.90;33.20
37232;DHT22;23125;48.156;15.954;2023-06-14T12:23:03;26.90;33.40
37232;DHT22;23125;48.156;15.954;2023-06-14T12:25:34;26.80;33.60
37232;DHT22;23125;48.156;15.954;2023-06-14T12:28:06;26.70;33.30
37232;DHT22;23125;48.156;15.954;2023-06-14T12:30:32;26.60;33.20
37232;DHT22;23125;48.156;15.954;2023-06-14T12:32:58;26.60;33.50
37232;DHT22;23125;48.156;15.954;2023-06-14T12:35:24;26.50;33.90
37232;DHT22;23125;48.156;15.954;2023-06-14T12:37:50;26.50;34.00
37232;DHT22;23125;48.156;15.954;2023-06-14T12:40:16;26.50;34.10
37232;DHT22;23125;48.156;15.954;2023-06-14T12:42:44;26.50;34.20
37232;DHT22;23125;48.156;15.954;2023-06-14T12:45:10;26.50;34.40
37232;DHT22;23125;48.156;15.954;2023-06-14T12:47:36;26.50;34.10
37232;DHT22;23125;48.156;15.954;2023-06-14T12:50:02;26.50;34.50
37232;DHT22;23125;48.156;15.954;2023-06-14T12:52:28;26.50;34.40
37232;DHT22;23125;48.156;15.954;2023-06-14T12:54:54;26.50;34.50
37232;DHT22;23125;48.156;15.954;2023-06-14T12:57:20;26.40;34.40
37232;DHT22;23125;48.156;15.954;2023-06-14T12:59:45;26.40;34.30
37232;DHT22;23125;48.156;15.954;2023-06-14T13:02:16;26.30;34.40
37232;DHT22;23125;48.156;15.954;2023-06-14T13:04:43;26.20;34.40
37232;DHT22;23125;48.156;15.954;2023-06-14T13:07:09;26.20;34.60
37232;DHT22;23125;48.156;15.954;2023-06-14T13:09:37;26.20;34.80
37232;DHT22;23125;48.156;15.954;2023-06-14T13:12:03;26.20;34.90
37232;DHT22;23125;48.156;15.954;2023-06-14T13:14:29;26.20;34.90
37232;DHT22;23125;48.156;15.954;2023-06-14T13:16:55;26.10;35.00
37232;DHT22;23125;48.156;15.954;2023-06-14T13:19:21;26.20;35.20
37232;DHT22;23125;48.156;15.954;2023-06-14T13:21:47;26.10;35.00
37232;DHT22;23125;48.156;15.954;2023-06-14T13:24:13;26.10;34.90
37232;DHT22;23125;48.156;15.954;2023-06-14T13:26:39;26.00;34.90
37232;DHT22;23125;48.156;15.954;2023-06-14T13:29:05;26.00;35.10
37232;DHT22;23125;48.156;15.954;2023-06-14T13:31:31;25.90;35.00
37232;DHT22;23125;48.156;15.954;2023-06-14T13:33:57;25.80;35.10
37232;DHT22;23125;48.156;15.954;2023-06-14T13:36:23;25.80;35.20
37232;DHT22;23125;48.156;15.954;2023-06-14T13:38:49;25.70;35.30
37232;DHT22;23125;48.156;15.954;2023-06-14T13:41:17;25.70;35.50
37232;DHT22;23125;48.156;15.954;2023-06-14T13:43:42;25.70;35.70
37232;DHT22;23125;48.156;15.954;2023-06-14T13:46:08;25.70;35.80
37232;DHT22;23125;48.156;15.954;2023-06-14T13:48:34;25.70;35.70
37232;DHT22;23125;48.156;15.954;2023-06-14T13:51:00;25.70;35.80
37232;DHT22;23125;48.156;15.954;2023-06-14T13:53:27;25.70;35.90
37232;DHT22;23125;48.156;15.954;2023-06-14T13:55:52;25.70;35.90
37232;DHT22;23125;48.156;15.954;2023-06-14T13:58:19;25.70;35.90
37232;DHT22;23125;48.156;15.954;2023-06-14T14:00:45;25.70;36.10
37232;DHT22;23125;48.156;15.954;2023-06-14T14:03:11;25.70;36.20
37232;DHT22;23125;48.156;15.954;2023-06-14T14:05:36;25.70;36.40
37232;DHT22;23125;48.156;15.954;2023-06-14T14:08:03;25.70;36.70
37232;DHT22;23125;48.156;15.954;2023-06-14T14:10:29;25.80;36.60
37232;DHT22;23125;48.156;15.954;2023-06-14T14:12:55;25.90;36.60
37232;DHT22;23125;48.156;15.954;2023-06-14T14:15:22;25.80;36.40
37232;DHT22;23125;48.156;15.954;2023-06-14T14:17:48;25.80;36.20
37232;DHT22;23125;48.156;15.954;2023-06-14T14:20:14;25.80;36.60
37232;DHT22;23125;48.156;15.954;2023-06-14T14:22:42;25.90;36.70
37232;DHT22;23125;48.156;15.954;2023-06-14T14:25:09;25.90;36.30
37232;DHT22;23125;48.156;15.954;2023-06-14T14:27:35;25.90;36.10
37232;DHT22;23125;48.156;15.954;2023-06-14T14:30:01;25.90;36.00
37232;DHT22;23125;48.156;15.954;2023-06-14T14:32:27;25.90;36.80
37232;DHT22;23125;48.156;15.954;2023-06-14T14:34:53;25.90;36.00
37232;DHT22;23125;48.156;15.954;2023-06-14T14:37:19;25.90;36.10
37232;DHT22;23125;48.156;15.954;2023-06-14T14:39:45;25.90;36.50
37232;DHT22;23125;48.156;15.954;2023-06-14T14:42:12;25.80;36.30
37232;DHT22;23125;48.156;15.954;2023-06-14T14:44:39;25.90;36.60
37232;DHT22;23125;48.156;15.954;2023-06-14T14:47:05;25.80;37.10
37232;DHT22;23125;48.156;15.954;2023-06-14T14:49:32;25.90;36.60
37232;DHT22;23125;48.156;15.954;2023-06-14T14:51:58;25.80;36.70
37232;DHT22;23125;48.156;15.954;2023-06-14T14:54:24;25.90;36.70
37232;DHT22;23125;48.156;15.954;2023-06-14T14:56:51;25.80;36.50
37232;DHT22;23125;48.156;15.954;2023-06-14T14:59:17;25.80;36.60
37232;DHT22;23125;48.156;15.954;2023-06-14T15:01:44;25.70;36.50
37232;DHT22;23125;48.156;15.954;2023-06-14T15:04:11;25.60;36.50
37232;DHT22;23125;48.156;15.954;2023-06-14T15:06:37;25.60;36.80
37232;DHT22;23125;48.156;15.954;2023-06-14T15:09:06;25.60;36.80
37232;DHT22;23125;48.156;15.954;2023-06-14T15:11:32;25.60;36.90
37232;DHT22;23125;48.156;15.954;2023-06-14T15:13:57;25.50;37.00
37232;DHT22;23125;48.156;15.954;2023-06-14T15:16:24;25.50;37.20
37232;DHT22;23125;48.156;15.954;2023-06-14T15:18:49;25.60;37.20
37232;DHT22;23125;48.156;15.954;2023-06-14T15:21:15;25.60;37.50
37232;DHT22;23125;48.156;15.954;2023-06-14T15:23:41;25.60;37.30
37232;DHT22;23125;48.156;15.954;2023-06-14T15:26:07;25.60;37.20